createdAt,value
2019-02-07T00:01:44.463Z,2.10
2019-02-07T00:04:13.867Z,2.10
2019-02-07T00:06:43.117Z,2.10
2019-02-07T00:09:12.338Z,2.10
2019-02-07T00:11:41.590Z,2.10
2019-02-07T00:14:10.732Z,2.10
2019-02-07T00:16:40.064Z,2.10
2019-02-07T00:19:09.295Z,2.10
2019-02-07T00:21:38.555Z,2.10
2019-02-07T00:24:08.288Z,2.10
2019-02-07T00:26:37.610Z,2.10
2019-02-07T00:29:06.762Z,2.10
2019-02-07T00:31:36.074Z,2.00
2019-02-07T00:34:24.494Z,2.00
2019-02-07T00:36:53.670Z,2.00
2019-02-07T00:39:23.094Z,2.00
2019-02-07T00:41:52.422Z,2.00
2019-02-07T00:44:21.758Z,2.00
2019-02-07T00:46:50.939Z,2.00
2019-02-07T00:49:20.243Z,2.00
2019-02-07T00:51:49.513Z,1.90
2019-02-07T00:54:19.046Z,1.90
2019-02-07T00:56:48.220Z,1.90
2019-02-07T00:59:17.471Z,1.90
2019-02-07T01:01:46.683Z,1.90
2019-02-07T01:04:15.942Z,1.90
2019-02-07T01:06:45.101Z,1.90
2019-02-07T01:09:14.458Z,1.90
2019-02-07T01:11:43.683Z,1.90
2019-02-07T01:14:12.975Z,2.00
2019-02-07T01:16:42.279Z,2.00
2019-02-07T01:19:11.958Z,2.00
2019-02-07T01:21:41.104Z,2.00
2019-02-07T01:24:10.463Z,2.00
2019-02-07T01:26:39.708Z,2.00
2019-02-07T01:29:09.066Z,2.00
2019-02-07T01:31:38.290Z,2.00
2019-02-07T01:34:07.810Z,2.00
2019-02-07T01:36:37.036Z,2.00
2019-02-07T01:39:08.879Z,2.00
2019-02-07T01:41:38.182Z,2.00
2019-02-07T01:44:07.511Z,2.10
2019-02-07T01:46:36.733Z,2.10
2019-02-07T01:49:06.019Z,2.10
2019-02-07T01:51:35.315Z,2.10
2019-02-07T01:54:04.842Z,2.10
2019-02-07T01:56:34.071Z,2.10
2019-02-07T01:59:03.333Z,2.10
2019-02-07T02:01:32.578Z,2.10
2019-02-07T02:04:02.272Z,2.10
2019-02-07T02:06:31.502Z,2.10
2019-02-07T02:09:00.739Z,2.10
2019-02-07T02:11:29.930Z,2.10
2019-02-07T02:13:59.083Z,2.00
2019-02-07T02:16:28.437Z,2.00
2019-02-07T02:18:57.653Z,2.00
2019-02-07T02:21:27.027Z,1.90
2019-02-07T02:23:56.263Z,1.90
2019-02-07T02:26:25.603Z,1.80
2019-02-07T02:28:54.831Z,1.80
2019-02-07T02:31:24.087Z,1.70
2019-02-07T02:33:53.313Z,1.70
2019-02-07T02:36:22.638Z,1.70
2019-02-07T02:38:51.974Z,1.70
2019-02-07T02:41:21.260Z,1.70
2019-02-07T02:43:50.570Z,1.70
2019-02-07T02:46:19.758Z,1.70
2019-02-07T02:48:49.067Z,1.80
2019-02-07T02:51:18.256Z,1.80
2019-02-07T02:53:47.793Z,1.80
2019-02-07T02:56:17.139Z,1.80
2019-02-07T02:58:46.482Z,1.80
2019-02-07T03:01:40.347Z,1.80
2019-02-07T03:04:18.070Z,1.80
2019-02-07T03:07:21.815Z,1.80
2019-02-07T03:10:06.331Z,1.80
2019-02-07T03:12:53.249Z,1.80
2019-02-07T03:15:49.319Z,1.80
2019-02-07T03:18:30.154Z,1.80
2019-02-07T03:21:21.394Z,1.80
2019-02-07T03:24:13.270Z,1.80
2019-02-07T03:27:00.592Z,1.80
2019-02-07T03:29:48.325Z,1.80
2019-02-07T03:32:22.676Z,1.80
2019-02-07T03:34:58.220Z,1.80
2019-02-07T03:37:46.503Z,1.80
2019-02-07T03:40:41.171Z,1.80
2019-02-07T03:43:28.790Z,1.90
2019-02-07T03:46:23.070Z,1.90
2019-02-07T03:49:17.860Z,1.90
2019-02-07T03:51:57.963Z,1.90
2019-02-07T03:54:58.551Z,1.80
2019-02-07T03:57:59.162Z,1.90
2019-02-07T04:00:34.913Z,1.90
2019-02-07T04:03:26.395Z,1.90
2019-02-07T04:06:06.582Z,1.90
2019-02-07T04:08:53.601Z,1.90
2019-02-07T04:11:40.838Z,1.90
2019-02-07T04:14:20.360Z,1.90
2019-02-07T04:17:07.686Z,1.90
2019-02-07T04:19:47.738Z,1.80
2019-02-07T04:22:35.015Z,1.90
2019-02-07T04:25:22.049Z,1.90
2019-02-07T04:28:18.530Z,1.90
2019-02-07T04:31:06.337Z,1.90
2019-02-07T04:34:13.085Z,2.00
2019-02-07T04:36:50.322Z,1.90
2019-02-07T04:39:50.966Z,1.90
2019-02-07T04:42:37.850Z,1.90
2019-02-07T04:45:24.354Z,1.90
2019-02-07T04:48:11.630Z,1.80
2019-02-07T04:50:51.165Z,1.90
2019-02-07T04:53:48.669Z,1.80
2019-02-07T04:56:49.375Z,1.80
2019-02-07T04:59:49.705Z,1.80
2019-02-07T05:02:38.088Z,1.80
2019-02-07T05:05:27.463Z,1.80
2019-02-07T05:08:25.042Z,1.80
2019-02-07T05:11:16.358Z,1.80
2019-02-07T05:14:04.943Z,1.80
2019-02-07T05:16:45.051Z,1.80
2019-02-07T05:19:36.168Z,1.80
2019-02-07T05:22:27.793Z,1.90
2019-02-07T05:25:10.573Z,1.90
2019-02-07T05:27:58.858Z,1.90
2019-02-07T05:30:52.871Z,1.90
2019-02-07T05:33:44.854Z,2.00
2019-02-07T05:36:29.378Z,2.00
2019-02-07T05:39:17.666Z,1.90
2019-02-07T05:42:11.651Z,1.90
2019-02-07T05:44:58.944Z,1.90
2019-02-07T05:47:49.121Z,2.00
2019-02-07T05:50:32.163Z,2.00
2019-02-07T05:53:23.253Z,2.00
2019-02-07T05:56:11.307Z,2.00
2019-02-07T05:59:02.606Z,2.00
2019-02-07T06:02:05.978Z,2.00
2019-02-07T06:04:57.075Z,2.00
2019-02-07T06:07:50.061Z,2.00
2019-02-07T06:10:37.176Z,2.00
2019-02-07T06:13:40.575Z,2.00
2019-02-07T06:16:40.987Z,2.00
2019-02-07T06:19:35.129Z,2.00
2019-02-07T06:22:23.385Z,2.00
2019-02-07T06:25:03.814Z,2.00
2019-02-07T06:27:54.842Z,2.10
2019-02-07T06:30:47.479Z,2.10
2019-02-07T06:33:38.477Z,2.10
2019-02-07T06:36:44.857Z,2.20
2019-02-07T06:39:29.524Z,2.20
2019-02-07T06:42:16.230Z,2.20
2019-02-07T06:45:06.013Z,2.10
2019-02-07T06:48:01.921Z,2.20
2019-02-07T06:50:50.242Z,2.20
2019-02-07T06:53:38.502Z,2.10
2019-02-07T06:56:25.734Z,2.20
2019-02-07T06:59:12.821Z,2.20
2019-02-07T07:02:13.274Z,2.20
2019-02-07T07:04:51.237Z,2.20
2019-02-07T07:07:39.454Z,2.10
2019-02-07T07:10:42.223Z,2.10
2019-02-07T07:13:39.984Z,2.10
2019-02-07T07:16:16.776Z,2.10
2019-02-07T07:19:03.631Z,2.10
2019-02-07T07:21:56.290Z,2.10
2019-02-07T07:24:53.895Z,2.20
2019-02-07T07:27:40.774Z,2.20
2019-02-07T07:30:32.158Z,2.20
2019-02-07T07:33:20.372Z,2.20
2019-02-07T07:36:08.632Z,2.20
2019-02-07T07:38:50.467Z,2.20
2019-02-07T07:41:38.678Z,2.20
2019-02-07T07:44:25.938Z,2.30
2019-02-07T07:47:06.486Z,2.30
2019-02-07T07:49:53.399Z,2.30
2019-02-07T07:52:39.824Z,2.30
2019-02-07T07:55:15.318Z,2.30
2019-02-07T07:58:06.383Z,2.30
2019-02-07T08:00:57.613Z,2.30
2019-02-07T08:03:45.823Z,2.30
2019-02-07T08:06:35.051Z,2.30
2019-02-07T08:09:26.982Z,2.30
2019-02-07T08:12:12.695Z,2.30
2019-02-07T08:15:04.069Z,2.30
2019-02-07T08:17:47.534Z,2.30
2019-02-07T08:20:32.995Z,2.40
2019-02-07T08:23:25.658Z,2.30
2019-02-07T08:26:17.155Z,2.30
2019-02-07T08:29:02.886Z,2.30
2019-02-07T08:31:44.929Z,2.30
2019-02-07T08:34:48.307Z,2.20
2019-02-07T08:37:36.531Z,2.20
2019-02-07T08:40:26.985Z,2.30
2019-02-07T08:43:30.628Z,2.30
2019-02-07T08:46:17.976Z,2.30
2019-02-07T08:49:12.451Z,2.30
2019-02-07T08:52:06.895Z,2.30
2019-02-07T08:54:58.010Z,2.30
2019-02-07T08:57:46.679Z,2.30
2019-02-07T09:00:33.003Z,2.30
2019-02-07T09:03:12.718Z,2.30
2019-02-07T09:06:03.756Z,2.30
2019-02-07T09:08:50.421Z,2.30
2019-02-07T09:11:41.750Z,2.30
2019-02-07T09:14:27.876Z,2.40
2019-02-07T09:17:19.349Z,2.40
2019-02-07T09:20:16.674Z,2.40
2019-02-07T09:23:03.921Z,2.40
2019-02-07T09:25:51.187Z,2.30
2019-02-07T09:28:32.915Z,2.40
2019-02-07T09:31:23.437Z,2.40
2019-02-07T09:34:30.112Z,2.40
2019-02-07T09:37:18.391Z,2.40
2019-02-07T09:40:06.641Z,2.40
2019-02-07T09:42:44.882Z,2.40
2019-02-07T09:45:39.857Z,2.40
2019-02-07T09:48:46.314Z,2.40
2019-02-07T09:51:37.936Z,2.40
2019-02-07T09:54:24.610Z,2.40
2019-02-07T09:57:15.004Z,2.40
2019-02-07T10:00:06.390Z,2.40
2019-02-07T10:02:43.040Z,2.50
2019-02-07T10:05:47.033Z,2.40
2019-02-07T10:08:34.340Z,2.40
2019-02-07T10:11:21.133Z,2.40
2019-02-07T10:14:09.323Z,2.30
2019-02-07T10:16:54.239Z,2.40
2019-02-07T10:19:42.503Z,2.40
2019-02-07T10:22:31.062Z,2.40
2019-02-07T10:25:18.034Z,2.50
2019-02-07T10:28:17.039Z,2.50
2019-02-07T10:31:13.379Z,2.50
2019-02-07T10:34:13.566Z,2.60
2019-02-07T10:36:55.929Z,2.60
2019-02-07T10:39:44.119Z,2.60
2019-02-07T10:42:44.742Z,2.60
2019-02-07T10:45:43.135Z,2.60
2019-02-07T10:48:30.481Z,2.50
2019-02-07T10:51:18.834Z,2.50
2019-02-07T10:53:58.062Z,2.50
2019-02-07T10:56:46.379Z,2.60
2019-02-07T10:59:31.040Z,2.50
2019-02-07T11:02:22.334Z,2.60
2019-02-07T11:05:10.896Z,2.60
2019-02-07T11:08:08.670Z,2.60
2019-02-07T11:11:02.673Z,2.60
2019-02-07T11:14:08.450Z,2.60
2019-02-07T11:16:55.336Z,2.70
2019-02-07T11:19:43.875Z,2.60
2019-02-07T11:22:38.155Z,2.70
2019-02-07T11:25:27.454Z,2.70
2019-02-07T11:28:21.806Z,2.70
2019-02-07T11:31:25.371Z,2.70
2019-02-07T11:34:22.750Z,2.70
2019-02-07T11:37:09.591Z,2.60
2019-02-07T11:40:04.219Z,2.60
2019-02-07T11:42:52.487Z,2.60
2019-02-07T11:45:40.854Z,2.60
2019-02-07T11:48:28.894Z,2.60
2019-02-07T11:51:15.694Z,2.60
2019-02-07T11:54:07.986Z,2.60
2019-02-07T11:57:08.425Z,2.60
2019-02-07T11:59:55.366Z,2.60
2019-02-07T12:02:47.234Z,2.60
2019-02-07T12:05:50.589Z,2.70
2019-02-07T12:08:59.891Z,2.70
2019-02-07T12:11:53.896Z,2.80
2019-02-07T12:14:47.013Z,2.70
2019-02-07T12:17:34.721Z,2.80
2019-02-07T12:20:23.706Z,2.80
2019-02-07T12:23:12.171Z,2.80
2019-02-07T12:25:52.918Z,2.80
2019-02-07T12:28:41.111Z,2.80
2019-02-07T12:31:27.970Z,2.80
2019-02-07T12:34:15.038Z,2.80
2019-02-07T12:37:02.913Z,2.70
2019-02-07T12:39:51.135Z,2.80
2019-02-07T12:42:38.606Z,2.80
2019-02-07T12:45:37.669Z,2.90
2019-02-07T12:48:26.340Z,2.90
2019-02-07T12:51:24.754Z,2.80
2019-02-07T12:54:20.919Z,2.80
2019-02-07T12:57:09.154Z,2.80
2019-02-07T12:59:59.162Z,2.80
2019-02-07T13:02:38.891Z,2.90
2019-02-07T13:05:29.347Z,2.90
2019-02-07T13:08:17.543Z,2.90
2019-02-07T13:11:07.946Z,3.00
2019-02-07T13:13:50.782Z,3.00
2019-02-07T13:16:45.262Z,3.00
2019-02-07T13:19:40.308Z,3.00
2019-02-07T13:22:35.736Z,3.00
2019-02-07T13:25:43.314Z,3.00
2019-02-07T13:28:22.932Z,3.00
2019-02-07T13:31:09.649Z,3.00
2019-02-07T13:34:02.762Z,3.00
2019-02-07T13:36:48.917Z,3.00
2019-02-07T13:39:37.657Z,3.00
2019-02-07T13:42:44.929Z,3.00
2019-02-07T13:45:42.326Z,3.10
2019-02-07T13:48:43.019Z,3.10
2019-02-07T13:51:38.340Z,3.20
2019-02-07T13:54:29.519Z,3.20
2019-02-07T13:57:23.591Z,3.20
2019-02-07T14:00:10.714Z,3.30
2019-02-07T14:02:48.111Z,3.20
2019-02-07T14:05:38.564Z,3.30
2019-02-07T14:08:25.250Z,3.20
2019-02-07T14:11:16.885Z,3.30
2019-02-07T14:14:11.281Z,3.30
2019-02-07T14:17:17.838Z,3.40
2019-02-07T14:20:03.920Z,3.40
2019-02-07T14:22:52.852Z,3.40
2019-02-07T14:25:32.291Z,3.40
2019-02-07T14:28:19.262Z,3.40
2019-02-07T14:31:13.431Z,3.40
2019-02-07T14:34:00.601Z,3.40
2019-02-07T14:36:40.656Z,3.40
2019-02-07T14:39:29.099Z,3.40
2019-02-07T14:42:35.634Z,3.40
2019-02-07T14:45:28.679Z,3.40
2019-02-07T14:47:57.953Z,3.40
2019-02-07T14:50:27.279Z,3.40
2019-02-07T14:52:56.544Z,3.40
2019-02-07T14:55:26.059Z,3.50
2019-02-07T14:57:55.544Z,3.50
2019-02-07T15:00:25.742Z,3.50
2019-02-07T15:02:55.090Z,3.50
2019-02-07T15:05:24.599Z,3.60
2019-02-07T15:07:53.844Z,3.60
2019-02-07T15:10:23.390Z,3.60
2019-02-07T15:12:52.638Z,3.60
2019-02-07T15:15:22.199Z,3.70
2019-02-07T15:17:51.530Z,3.70
2019-02-07T15:20:26.315Z,3.70
2019-02-07T15:22:51.751Z,3.70
2019-02-07T15:25:21.215Z,3.70
2019-02-07T15:27:50.441Z,3.70
2019-02-07T15:30:19.686Z,3.70
2019-02-07T15:32:48.836Z,3.70
2019-02-07T15:35:21.398Z,3.70
2019-02-07T15:37:50.721Z,3.70
2019-02-07T15:40:22.282Z,3.70
2019-02-07T15:42:51.930Z,3.70
2019-02-07T15:45:21.590Z,3.70
2019-02-07T15:47:50.838Z,3.70
2019-02-07T15:50:22.588Z,3.70
2019-02-07T15:52:53.989Z,3.60
2019-02-07T15:55:23.639Z,3.60
2019-02-07T15:57:53.059Z,3.60
2019-02-07T16:00:40.643Z,3.60
2019-02-07T16:03:14.448Z,3.60
2019-02-07T16:05:43.775Z,3.60
2019-02-07T16:08:13.000Z,3.60
2019-02-07T16:10:42.458Z,3.60
2019-02-07T16:13:11.675Z,3.70
2019-02-07T16:15:41.011Z,3.60
2019-02-07T16:18:10.540Z,3.70
2019-02-07T16:20:48.634Z,3.70
2019-02-07T16:23:10.934Z,3.70
2019-02-07T16:25:40.336Z,3.60
2019-02-07T16:28:09.772Z,3.60
2019-02-07T16:30:39.140Z,3.60
2019-02-07T16:33:08.563Z,3.60
2019-02-07T16:35:38.291Z,3.60
2019-02-07T16:38:07.782Z,3.60
2019-02-07T16:40:37.113Z,3.60
2019-02-07T16:43:06.410Z,3.60
2019-02-07T16:45:35.669Z,3.60
2019-02-07T16:48:05.460Z,3.70
2019-02-07T16:50:34.801Z,3.70
2019-02-07T16:53:04.339Z,3.80
2019-02-07T16:55:33.596Z,3.70
2019-02-07T16:58:02.930Z,3.70
2019-02-07T17:00:33.066Z,3.80
2019-02-07T17:03:02.333Z,3.70
2019-02-07T17:05:31.563Z,3.70
2019-02-07T17:08:00.885Z,3.70
2019-02-07T17:10:32.005Z,3.70
2019-02-07T17:13:01.360Z,3.70
2019-02-07T17:15:30.707Z,3.70
2019-02-07T17:18:00.019Z,3.70
2019-02-07T17:20:30.639Z,3.70
2019-02-07T17:23:00.427Z,3.80
2019-02-07T17:25:30.669Z,3.70
2019-02-07T17:28:00.108Z,3.70
2019-02-07T17:30:29.978Z,3.70
2019-02-07T17:32:59.411Z,3.60
2019-02-07T17:35:28.558Z,3.60
2019-02-07T17:37:57.916Z,3.60
2019-02-07T17:40:27.083Z,3.60
2019-02-07T17:42:56.659Z,3.70
2019-02-07T17:45:26.882Z,3.70
2019-02-07T17:47:56.545Z,3.70
2019-02-07T17:50:27.663Z,3.60
2019-02-07T17:52:57.111Z,3.70
2019-02-07T17:55:26.755Z,3.70
2019-02-07T17:57:56.083Z,3.70
2019-02-07T18:00:49.979Z,3.70
2019-02-07T18:03:19.302Z,3.70
2019-02-07T18:05:48.535Z,3.70
2019-02-07T18:08:17.866Z,3.80
2019-02-07T18:10:47.553Z,3.70
2019-02-07T18:13:16.734Z,3.70
2019-02-07T18:15:45.882Z,3.70
2019-02-07T18:18:15.541Z,3.70
2019-02-07T18:20:44.851Z,3.70
2019-02-07T18:23:14.026Z,3.70
2019-02-07T18:25:43.354Z,3.70
2019-02-07T18:28:12.799Z,3.70
2019-02-07T18:30:41.955Z,3.70
2019-02-07T18:33:11.191Z,3.70
2019-02-07T18:35:40.439Z,3.70
2019-02-07T18:38:09.775Z,3.70
2019-02-07T18:40:39.119Z,3.70
2019-02-07T18:43:08.345Z,3.70
2019-02-07T18:45:37.902Z,3.70
2019-02-07T18:48:07.142Z,3.80
2019-02-07T18:50:37.246Z,3.80
2019-02-07T18:53:06.954Z,3.90
2019-02-07T18:55:36.538Z,3.90
2019-02-07T18:58:06.137Z,3.90
2019-02-07T19:00:35.838Z,3.90
2019-02-07T19:03:06.797Z,3.90
2019-02-07T19:05:36.157Z,3.80
2019-02-07T19:08:05.706Z,3.80
2019-02-07T19:10:35.063Z,3.90
2019-02-07T19:13:04.506Z,3.80
2019-02-07T19:15:52.288Z,3.80
2019-02-07T19:18:21.430Z,3.70
2019-02-07T19:20:50.691Z,3.70
2019-02-07T19:23:20.483Z,3.70
2019-02-07T19:25:49.785Z,3.70
2019-02-07T19:28:19.092Z,3.70
2019-02-07T19:30:48.404Z,3.70
2019-02-07T19:33:17.663Z,3.70
2019-02-07T19:35:47.030Z,3.70
2019-02-07T19:38:16.323Z,3.70
2019-02-07T19:40:45.662Z,3.60
2019-02-07T19:43:14.955Z,3.60
2019-02-07T19:45:44.142Z,3.60
2019-02-07T19:48:13.370Z,3.60
2019-02-07T19:50:42.634Z,3.50
2019-02-07T19:53:11.854Z,3.50
2019-02-07T19:55:41.139Z,3.50
2019-02-07T19:58:10.447Z,3.50
2019-02-07T20:00:39.779Z,3.50
2019-02-07T20:03:09.094Z,3.50
2019-02-07T20:05:38.362Z,3.60
2019-02-07T20:08:07.590Z,3.60
2019-02-07T20:10:37.243Z,3.60
2019-02-07T20:13:06.767Z,3.60
2019-02-07T20:15:41.011Z,3.60
2019-02-07T20:18:11.407Z,3.60
2019-02-07T20:20:41.062Z,3.50
2019-02-07T20:23:10.294Z,3.40
2019-02-07T20:25:40.132Z,3.40
2019-02-07T20:28:09.651Z,3.40
2019-02-07T20:30:40.768Z,3.50
2019-02-07T20:33:10.554Z,3.50
2019-02-07T20:35:39.983Z,3.60
2019-02-07T20:38:10.514Z,3.60
2019-02-07T20:40:39.706Z,3.70
2019-02-07T20:43:09.130Z,3.70
2019-02-07T20:45:38.350Z,3.70
2019-02-07T20:48:09.142Z,3.70
2019-02-07T20:50:38.466Z,3.70
2019-02-07T20:53:07.710Z,3.70
2019-02-07T20:55:37.038Z,3.70
2019-02-07T20:58:06.874Z,3.70
2019-02-07T21:00:37.679Z,3.70
2019-02-07T21:03:07.333Z,3.70
2019-02-07T21:05:36.799Z,3.60
2019-02-07T21:08:06.172Z,3.60
2019-02-07T21:10:35.773Z,3.60
2019-02-07T21:13:05.859Z,3.60
2019-02-07T21:15:35.136Z,3.60
2019-02-07T21:18:04.800Z,3.50
2019-02-07T21:20:34.105Z,3.50
2019-02-07T21:23:03.846Z,3.50
2019-02-07T21:25:42.326Z,3.50
2019-02-07T21:28:12.065Z,3.50
2019-02-07T21:30:41.364Z,3.50
2019-02-07T21:33:10.635Z,3.50
2019-02-07T21:35:40.015Z,3.60
2019-02-07T21:38:09.354Z,3.60
2019-02-07T21:40:38.566Z,3.50
2019-02-07T21:43:07.901Z,3.50
2019-02-07T21:45:37.138Z,3.50
2019-02-07T21:48:09.342Z,3.50
2019-02-07T21:50:38.898Z,3.60
2019-02-07T21:53:08.163Z,3.50
2019-02-07T21:55:37.514Z,3.60
2019-02-07T21:58:07.661Z,3.60
2019-02-07T22:00:38.873Z,3.60
2019-02-07T22:03:09.689Z,3.60
2019-02-07T22:05:39.038Z,3.60
2019-02-07T22:08:08.726Z,3.60
2019-02-07T22:10:38.233Z,3.60
2019-02-07T22:13:07.950Z,3.50
2019-02-07T22:15:37.187Z,3.50
2019-02-07T22:18:07.889Z,3.40
2019-02-07T22:20:37.377Z,3.40
2019-02-07T22:23:06.793Z,3.40
2019-02-07T22:25:36.090Z,3.40
2019-02-07T22:28:07.248Z,3.40
2019-02-07T22:30:36.808Z,3.50
2019-02-07T22:33:06.742Z,3.40
2019-02-07T22:35:36.178Z,3.40
2019-02-07T22:38:06.590Z,3.40
2019-02-07T22:40:35.902Z,3.40
2019-02-07T22:43:05.559Z,3.40
2019-02-07T22:45:34.787Z,3.40
2019-02-07T22:48:04.210Z,3.30
2019-02-07T22:50:33.539Z,3.30
2019-02-07T22:53:03.050Z,3.20
2019-02-07T22:55:32.363Z,3.20
2019-02-07T22:58:01.686Z,3.20
2019-02-07T23:01:15.088Z,3.20
2019-02-07T23:03:52.601Z,3.20
2019-02-07T23:06:21.854Z,3.20
2019-02-07T23:08:51.391Z,3.30
2019-02-07T23:11:21.254Z,3.30
2019-02-07T23:13:50.482Z,3.30
2019-02-07T23:16:20.046Z,3.40
2019-02-07T23:18:49.684Z,3.40
2019-02-07T23:21:19.118Z,3.40
2019-02-07T23:23:48.342Z,3.50
2019-02-07T23:26:17.595Z,3.50
2019-02-07T23:28:46.967Z,3.50
2019-02-07T23:31:16.302Z,3.60
2019-02-07T23:33:45.989Z,3.60
2019-02-07T23:36:15.253Z,3.60
2019-02-07T23:38:44.545Z,3.60
2019-02-07T23:41:13.899Z,3.60
2019-02-07T23:43:46.171Z,3.60
2019-02-07T23:46:14.206Z,3.60
2019-02-07T23:48:43.914Z,3.70
2019-02-07T23:51:13.175Z,3.70
2019-02-07T23:53:42.407Z,3.70
2019-02-07T23:56:11.690Z,3.70
2019-02-07T23:58:40.909Z,3.70
